Weather at Wiarton Airport

Public forecast

Using degrees Celsius for public forecast. Weather courtesy of forecast.io.

Current aviation weather report (METAR) for Wiarton Airport

2024/06/13 11:16 (retrieved 33 minutes ago)

CYVV 131116Z 23004KT 200V320 15SM FEW040 SCT070 BKN090 BKN250 19/13 A2979 RMK SC2AC2AS3CI1 CI TR SLP087 DENSITY ALT 1500FT

Aviation forecast (TAF) for Wiarton Airport

Forecast is more than 12 hours old.

2024/06/12 20:00 (retrieved 16 hours ago)

TAF CYVV 121940Z 1220/1223 23010G20KT P6SM FEW040 BECMG 1221/1223 19008KT RMK NXT FCST BY 131100Z